Time,TemperatureF,DewpointF,PressureIn,WindDirection,WindDirectionDegrees,WindSpeedMPH,WindSpeedGustMPH,Humidity,HourlyPrecipIn,Conditions,Clouds,dailyrainin,SoftwareType,DateUTC
2013-01-22 00:00:00,18.7,17.0,29.76,NW,321,0.0,0.0,93,0.00,,,0.00,Wunderground v.1.15,2013-01-22 05:00:00,
2013-01-22 00:05:00,18.8,16.9,29.76,NW,321,0.0,0.0,92,0.00,,,0.00,Wunderground v.1.15,2013-01-22 05:05:00,
2013-01-22 00:10:00,18.8,17.1,29.76,NW,321,0.0,0.0,93,0.00,,,0.00,Wunderground v.1.15,2013-01-22 05:10:00,
2013-01-22 00:20:00,18.9,17.0,29.77,NW,321,0.0,0.0,92,0.00,,,0.00,Wunderground v.1.15,2013-01-22 05:20:00,
2013-01-22 00:30:00,18.9,17.0,29.77,NW,321,0.0,0.0,92,0.00,,,0.00,Wunderground v.1.15,2013-01-22 05:30:00,
2013-01-22 00:35:00,18.9,17.0,29.76,NW,321,0.0,0.0,92,0.00,,,0.00,Wunderground v.1.15,2013-01-22 05:35:00,
2013-01-22 00:45:00,19.0,17.1,29.75,NW,321,0.0,0.0,92,0.00,,,0.00,Wunderground v.1.15,2013-01-22 05:45:00,
2013-01-22 00:50:00,18.9,17.0,29.75,NW,321,0.0,0.0,92,0.00,,,0.00,Wunderground v.1.15,2013-01-22 05:50:00,
2013-01-22 01:00:00,18.6,16.7,29.75,NW,321,0.0,0.0,92,0.00,,,0.00,Wunderground v.1.15,2013-01-22 06:00:00,
2013-01-22 01:10:00,18.2,16.3,29.75,NW,321,0.0,0.0,92,0.00,,,0.00,Wunderground v.1.15,2013-01-22 06:10:00,
2013-01-22 01:20:00,17.7,15.8,29.74,NW,321,0.0,0.0,92,0.00,,,0.00,Wunderground v.1.15,2013-01-22 06:20:00,
2013-01-22 01:30:00,17.2,15.0,29.74,NW,321,0.0,0.0,91,0.00,,,0.00,Wunderground v.1.15,2013-01-22 06:30:00,
2013-01-22 01:40:00,17.0,15.1,29.74,NW,321,0.0,0.0,92,0.00,,,0.00,Wunderground v.1.15,2013-01-22 06:40:00,
2013-01-22 01:50:00,17.0,15.1,29.75,NW,321,0.0,0.0,92,0.00,,,0.00,Wunderground v.1.15,2013-01-22 06:50:00,
2013-01-22 02:00:00,17.1,15.2,29.75,NW,321,0.0,0.0,92,0.00,,,0.00,Wunderground v.1.15,2013-01-22 07:00:00,
2013-01-22 02:10:00,17.3,15.4,29.75,NW,321,0.0,0.0,92,0.00,,,0.00,Wunderground v.1.15,2013-01-22 07:10:00,
2013-01-22 02:20:00,17.1,15.2,29.75,NW,321,0.0,0.0,92,0.00,,,0.00,Wunderground v.1.15,2013-01-22 07:20:00,
2013-01-22 02:25:00,17.1,15.2,29.75,NW,321,0.0,0.0,92,0.00,,,0.00,Wunderground v.1.15,2013-01-22 07:25:00,
2013-01-22 02:35:00,17.0,15.1,29.74,NW,321,0.0,0.0,92,0.00,,,0.00,Wunderground v.1.15,2013-01-22 07:35:00,
2013-01-22 02:45:00,16.9,15.0,29.74,NW,321,0.0,0.0,92,0.00,,,0.00,Wunderground v.1.15,2013-01-22 07:45:00,
2013-01-22 02:55:00,16.9,15.0,29.74,NW,321,0.0,0.0,92,0.00,,,0.00,Wunderground v.1.15,2013-01-22 07:55:00,
2013-01-22 03:00:00,16.8,14.9,29.74,NW,321,0.0,0.0,92,0.00,,,0.00,Wunderground v.1.15,2013-01-22 08:00:00,
2013-01-22 03:10:00,16.6,14.7,29.74,NW,321,0.0,0.0,92,0.00,,,0.00,Wunderground v.1.15,2013-01-22 08:10:00,
2013-01-22 03:20:00,16.3,14.4,29.74,NW,321,0.0,0.0,92,0.00,,,0.00,Wunderground v.1.15,2013-01-22 08:20:00,
2013-01-22 03:25:00,16.2,14.3,29.74,NW,321,0.0,0.0,92,0.00,,,0.00,Wunderground v.1.15,2013-01-22 08:25:00,
2013-01-22 03:35:00,15.8,13.9,29.74,NW,321,0.0,0.0,92,0.00,,,0.00,Wunderground v.1.15,2013-01-22 08:35:00,
2013-01-22 03:45:00,15.6,13.7,29.73,NW,321,0.0,0.0,92,0.00,,,0.00,Wunderground v.1.15,2013-01-22 08:45:00,
2013-01-22 03:55:00,15.3,13.1,29.74,NW,321,0.0,0.0,91,0.00,,,0.00,Wunderground v.1.15,2013-01-22 08:55:00,
2013-01-22 04:05:00,15.1,13.2,29.74,NW,321,0.0,0.0,92,0.00,,,0.00,Wunderground v.1.15,2013-01-22 09:05:00,
2013-01-22 04:15:00,15.1,13.2,29.74,NW,321,0.0,0.0,92,0.00,,,0.00,Wunderground v.1.15,2013-01-22 09:15:00,
2013-01-22 04:25:00,15.2,13.3,29.74,NW,321,0.0,0.0,92,0.00,,,0.00,Wunderground v.1.15,2013-01-22 09:25:00,
2013-01-22 04:30:00,15.3,13.4,29.74,NW,321,0.0,0.0,92,0.00,,,0.00,Wunderground v.1.15,2013-01-22 09:30:00,
2013-01-22 04:40:00,15.6,13.7,29.74,NW,321,0.0,0.0,92,0.00,,,0.00,Wunderground v.1.15,2013-01-22 09:40:00,
2013-01-22 04:50:00,15.9,14.0,29.74,NW,321,0.0,0.0,92,0.00,,,0.00,Wunderground v.1.15,2013-01-22 09:50:00,
2013-01-22 05:00:00,16.0,14.1,29.74,NW,321,0.0,0.0,92,0.00,,,0.00,Wunderground v.1.15,2013-01-22 10:00:00,
2013-01-22 05:10:00,16.1,14.2,29.74,NW,321,0.0,0.0,92,0.00,,,0.00,Wunderground v.1.15,2013-01-22 10:10:00,
2013-01-22 05:20:00,16.1,14.2,29.74,NW,321,0.0,0.0,92,0.00,,,0.00,Wunderground v.1.15,2013-01-22 10:20:00,
2013-01-22 05:30:00,16.4,14.7,29.74,NW,322,0.0,0.0,93,0.00,,,0.00,Wunderground v.1.15,2013-01-22 10:30:00,
2013-01-22 05:35:00,16.8,15.1,29.74,ENE,72,0.0,0.0,93,0.00,,,0.00,Wunderground v.1.15,2013-01-22 10:35:00,
2013-01-22 05:45:00,16.9,15.0,29.74,ENE,73,0.0,0.0,92,0.00,,,0.00,Wunderground v.1.15,2013-01-22 10:45:00,
2013-01-22 05:55:00,16.8,14.9,29.75,ENE,72,0.0,0.0,92,0.00,,,0.00,Wunderground v.1.15,2013-01-22 10:55:00,
2013-01-22 06:05:00,17.0,15.1,29.75,ESE,109,0.0,0.0,92,0.00,,,0.00,Wunderground v.1.15,2013-01-22 11:05:00,
2013-01-22 06:15:00,17.2,15.0,29.76,SW,223,0.0,0.0,91,0.00,,,0.00,Wunderground v.1.15,2013-01-22 11:15:00,
2013-01-22 06:25:00,17.3,15.1,29.76,West,259,0.0,0.0,91,0.00,,,0.00,Wunderground v.1.15,2013-01-22 11:25:00,
2013-01-22 06:35:00,17.3,14.9,29.77,WSW,256,0.0,0.0,90,0.00,,,0.00,Wunderground v.1.15,2013-01-22 11:35:00,
2013-01-22 06:45:00,17.4,15.0,29.77,South,185,0.0,0.0,90,0.00,,,0.00,Wunderground v.1.15,2013-01-22 11:45:00,
2013-01-22 06:55:00,17.2,14.5,29.77,WNW,300,0.0,0.0,89,0.00,,,0.00,Wunderground v.1.15,2013-01-22 11:55:00,
2013-01-22 07:05:00,17.0,14.1,29.77,SW,234,0.0,0.0,88,0.00,,,0.00,Wunderground v.1.15,2013-01-22 12:05:00,
2013-01-22 07:15:00,16.7,13.8,29.78,NW,312,0.0,0.0,88,0.00,,,0.00,Wunderground v.1.15,2013-01-22 12:15:00,
2013-01-22 07:25:00,16.5,13.3,29.78,ENE,64,0.0,0.0,87,0.00,,,0.00,Wunderground v.1.15,2013-01-22 12:25:00,
2013-01-22 07:35:00,16.5,13.3,29.79,South,183,0.0,1.0,87,0.00,,,0.00,Wunderground v.1.15,2013-01-22 12:35:00,
2013-01-22 07:45:00,16.6,13.1,29.79,East,97,0.0,2.0,86,0.00,,,0.00,Wunderground v.1.15,2013-01-22 12:45:00,
2013-01-22 07:50:00,16.6,12.9,29.79,SW,222,0.0,0.0,85,0.00,,,0.00,Wunderground v.1.15,2013-01-22 12:50:00,
2013-01-22 08:00:00,16.7,12.7,29.80,East,95,0.0,0.0,84,0.00,,,0.00,Wunderground v.1.15,2013-01-22 13:00:00,
2013-01-22 08:10:00,16.9,12.6,29.80,SSE,164,0.0,0.0,83,0.00,,,0.00,Wunderground v.1.15,2013-01-22 13:10:00,
2013-01-22 08:20:00,17.1,12.6,29.81,SW,228,0.0,0.0,82,0.00,,,0.00,Wunderground v.1.15,2013-01-22 13:20:00,
2013-01-22 08:30:00,17.5,12.4,29.81,East,86,1.0,2.0,80,0.00,,,0.00,Wunderground v.1.15,2013-01-22 13:30:00,
2013-01-22 08:40:00,17.9,12.5,29.81,East,82,1.0,1.0,79,0.00,,,0.00,Wunderground v.1.15,2013-01-22 13:40:00,
2013-01-22 08:50:00,18.0,12.0,29.81,ENE,64,1.0,1.0,77,0.00,,,0.00,Wunderground v.1.15,2013-01-22 13:50:00,
2013-01-22 09:00:00,18.5,12.2,29.81,NNE,22,1.0,2.0,76,0.00,,,0.00,Wunderground v.1.15,2013-01-22 14:00:00,
2013-01-22 09:10:00,18.9,12.0,29.81,NW,315,1.0,1.0,74,0.00,,,0.00,Wunderground v.1.15,2013-01-22 14:10:00,
2013-01-22 09:20:00,19.0,11.8,29.81,SSE,163,1.0,1.0,73,0.00,,,0.00,Wunderground v.1.15,2013-01-22 14:20:00,
2013-01-22 09:30:00,19.2,11.6,29.81,West,263,1.0,4.0,72,0.00,,,0.00,Wunderground v.1.15,2013-01-22 14:30:00,
2013-01-22 09:40:00,19.4,11.2,29.82,ESE,121,2.0,2.0,70,0.00,,,0.00,Wunderground v.1.15,2013-01-22 14:40:00,
2013-01-22 09:45:00,19.5,10.6,29.82,South,173,2.0,2.0,68,0.00,,,0.00,Wunderground v.1.15,2013-01-22 14:45:00,
2013-01-22 09:55:00,19.7,10.5,29.82,ENE,76,2.0,2.0,67,0.00,,,0.00,Wunderground v.1.15,2013-01-22 14:55:00,
2013-01-22 10:00:00,19.7,10.5,29.82,ENE,78,2.0,2.0,67,0.00,,,0.00,Wunderground v.1.15,2013-01-22 15:00:00,
2013-01-22 10:10:00,19.8,9.9,29.82,SW,236,2.0,2.0,65,0.00,,,0.00,Wunderground v.1.15,2013-01-22 15:10:00,
2013-01-22 10:15:00,20.0,9.8,29.82,West,273,2.0,5.0,64,0.00,,,0.00,Wunderground v.1.15,2013-01-22 15:15:00,
2013-01-22 10:25:00,19.8,9.2,29.83,ESE,107,2.0,2.0,63,0.00,,,0.00,Wunderground v.1.15,2013-01-22 15:25:00,
2013-01-22 10:35:00,19.7,7.7,29.83,ESE,102,2.0,2.0,59,0.00,,,0.00,Wunderground v.1.15,2013-01-22 15:35:00,
2013-01-22 10:45:00,19.2,7.2,29.83,ESE,105,2.0,2.0,59,0.00,,,0.00,Wunderground v.1.15,2013-01-22 15:45:00,
2013-01-22 10:55:00,19.5,7.9,29.83,SE,126,1.0,4.0,60,0.00,,,0.00,Wunderground v.1.15,2013-01-22 15:55:00,
2013-01-22 11:00:00,19.3,7.7,29.82,NNW,335,2.0,2.0,60,0.00,,,0.00,Wunderground v.1.15,2013-01-22 16:00:00,
2013-01-22 11:10:00,19.3,8.8,29.82,ESE,113,1.0,4.0,63,0.00,,,0.00,Wunderground v.1.15,2013-01-22 16:10:00,
2013-01-22 11:20:00,19.7,7.3,29.82,WNW,290,1.0,1.0,58,0.00,,,0.00,Wunderground v.1.15,2013-01-22 16:20:00,
2013-01-22 11:30:00,20.2,7.0,29.82,SE,134,1.0,1.0,56,0.00,,,0.00,Wunderground v.1.15,2013-01-22 16:30:00,
2013-01-22 11:40:00,20.8,7.6,29.81,SW,217,1.0,1.0,56,0.00,,,0.00,Wunderground v.1.15,2013-01-22 16:40:00,
2013-01-22 11:50:00,21.5,8.2,29.81,West,270,1.0,3.0,56,0.00,,,0.00,Wunderground v.1.15,2013-01-22 16:50:00,
2013-01-22 12:00:00,21.3,6.8,29.81,West,267,2.0,2.0,53,0.00,,,0.00,Wunderground v.1.15,2013-01-22 17:00:00,
2013-01-22 12:10:00,20.1,6.1,29.81,West,277,2.0,2.0,54,0.00,,,0.00,Wunderground v.1.15,2013-01-22 17:10:00,
2013-01-22 12:20:00,19.7,5.7,29.81,WSW,255,2.0,2.0,54,0.00,,,0.00,Wunderground v.1.15,2013-01-22 17:20:00,
2013-01-22 12:30:00,20.5,6.9,29.81,East,90,1.0,3.0,55,0.00,,,0.00,Wunderground v.1.15,2013-01-22 17:30:00,
2013-01-22 12:40:00,20.8,6.7,29.81,SW,223,1.0,1.0,54,0.00,,,0.00,Wunderground v.1.15,2013-01-22 17:40:00,
2013-01-22 12:45:00,20.8,7.2,29.81,SSW,202,1.0,1.0,55,0.00,,,0.00,Wunderground v.1.15,2013-01-22 17:45:00,
2013-01-22 12:50:00,20.6,7.0,29.81,West,261,1.0,4.0,55,0.00,,,0.00,Wunderground v.1.15,2013-01-22 17:50:00,
2013-01-22 13:00:00,20.5,3.4,29.81,WSW,246,2.0,2.0,47,0.00,,,0.00,Wunderground v.1.15,2013-01-22 18:00:00,
2013-01-22 13:10:00,21.0,4.8,29.81,ESE,102,2.0,2.0,49,0.00,,,0.00,Wunderground v.1.15,2013-01-22 18:10:00,
2013-01-22 13:20:00,21.4,6.5,29.81,SSW,211,1.0,4.0,52,0.00,,,0.00,Wunderground v.1.15,2013-01-22 18:20:00,
2013-01-22 13:30:00,22.0,6.2,29.81,East,87,2.0,2.0,50,0.00,,,0.00,Wunderground v.1.15,2013-01-22 18:30:00,
2013-01-22 13:40:00,22.7,6.4,29.81,West,265,2.0,2.0,49,0.00,,,0.00,Wunderground v.1.15,2013-01-22 18:40:00,
2013-01-22 13:50:00,22.8,6.0,29.82,West,259,1.0,1.0,48,0.00,,,0.00,Wunderground v.1.15,2013-01-22 18:50:00,
2013-01-22 13:55:00,22.9,5.2,29.82,West,276,1.0,4.0,46,0.00,,,0.00,Wunderground v.1.15,2013-01-22 18:55:00,
2013-01-22 14:05:00,22.1,4.4,29.83,SSW,198,3.0,3.0,46,0.00,,,0.00,Wunderground v.1.15,2013-01-22 19:05:00,
2013-01-22 14:15:00,21.5,2.9,29.83,West,268,3.0,6.0,44,0.00,,,0.00,Wunderground v.1.15,2013-01-22 19:15:00,
2013-01-22 14:25:00,21.2,4.5,29.84,SW,236,2.0,6.0,48,0.00,,,0.00,Wunderground v.1.15,2013-01-22 19:25:00,
2013-01-22 14:35:00,21.1,3.5,29.85,West,267,2.0,3.0,46,0.00,,,0.00,Wunderground v.1.15,2013-01-22 19:35:00,
2013-01-22 14:45:00,20.7,3.2,29.85,West,266,2.0,2.0,46,0.00,,,0.00,Wunderground v.1.15,2013-01-22 19:45:00,
2013-01-22 14:50:00,20.5,3.0,29.85,WSW,248,1.0,1.0,46,0.00,,,0.00,Wunderground v.1.15,2013-01-22 19:50:00,
2013-01-22 15:00:00,20.0,2.0,29.86,SW,222,1.0,1.0,45,0.00,,,0.00,Wunderground v.1.15,2013-01-22 20:00:00,
2013-01-22 15:10:00,19.8,4.1,29.87,SW,230,1.0,4.0,50,0.00,,,0.00,Wunderground v.1.15,2013-01-22 20:10:00,
2013-01-22 15:15:00,19.7,4.5,29.87,East,94,1.0,4.0,51,0.00,,,0.00,Wunderground v.1.15,2013-01-22 20:15:00,
2013-01-22 15:25:00,19.3,4.5,29.87,East,87,1.0,1.0,52,0.00,,,0.00,Wunderground v.1.15,2013-01-22 20:25:00,
2013-01-22 15:35:00,19.1,6.3,29.88,WSW,254,1.0,2.0,57,0.00,,,0.00,Wunderground v.1.15,2013-01-22 20:35:00,
2013-01-22 15:45:00,18.5,5.0,29.88,SSW,199,1.0,2.0,55,0.00,,,0.00,Wunderground v.1.15,2013-01-22 20:45:00,
2013-01-22 15:55:00,18.3,4.0,29.89,SSW,209,1.0,1.0,53,0.00,,,0.00,Wunderground v.1.15,2013-01-22 20:55:00,
2013-01-22 16:05:00,18.5,2.5,29.89,West,277,0.0,2.0,49,0.00,,,0.00,Wunderground v.1.15,2013-01-22 21:05:00,
2013-01-22 16:15:00,18.2,1.3,29.90,West,265,2.0,2.0,47,0.00,,,0.00,Wunderground v.1.15,2013-01-22 21:15:00,
2013-01-22 16:25:00,17.6,1.7,29.90,SSW,210,1.0,2.0,49,0.00,,,0.00,Wunderground v.1.15,2013-01-22 21:25:00,
2013-01-22 16:30:00,17.2,2.1,29.90,SE,144,0.0,0.0,51,0.00,,,0.00,Wunderground v.1.15,2013-01-22 21:30:00,
2013-01-22 16:40:00,16.7,2.1,29.91,West,273,1.0,1.0,52,0.00,,,0.00,Wunderground v.1.15,2013-01-22 21:40:00,
2013-01-22 16:50:00,16.2,3.2,29.91,SSW,207,1.0,1.0,56,0.00,,,0.00,Wunderground v.1.15,2013-01-22 21:50:00,
2013-01-22 17:00:00,15.8,3.6,29.91,SSW,203,0.0,1.0,58,0.00,,,0.00,Wunderground v.1.15,2013-01-22 22:00:00,
2013-01-22 17:10:00,15.5,4.1,29.92,WSW,257,0.0,0.0,60,0.00,,,0.00,Wunderground v.1.15,2013-01-22 22:10:00,
2013-01-22 17:20:00,15.1,3.7,29.93,WSW,257,0.0,0.0,60,0.00,,,0.00,Wunderground v.1.15,2013-01-22 22:20:00,
2013-01-22 17:30:00,14.7,3.7,29.93,North,360,0.0,0.0,61,0.00,,,0.00,Wunderground v.1.15,2013-01-22 22:30:00,
2013-01-22 17:40:00,14.4,3.4,29.94,North,355,0.0,0.0,61,0.00,,,0.00,Wunderground v.1.15,2013-01-22 22:40:00,
2013-01-22 17:50:00,13.9,3.6,29.94,North,355,0.0,0.0,63,0.00,,,0.00,Wunderground v.1.15,2013-01-22 22:50:00,
2013-01-22 18:00:00,13.3,3.4,29.95,North,355,0.0,0.0,64,0.00,,,0.00,Wunderground v.1.15,2013-01-22 23:00:00,
2013-01-22 18:05:00,13.0,3.1,29.95,North,355,0.0,0.0,64,0.00,,,0.00,Wunderground v.1.15,2013-01-22 23:05:00,
2013-01-22 18:15:00,13.0,2.4,29.96,North,360,0.0,0.0,62,0.00,,,0.00,Wunderground v.1.15,2013-01-22 23:15:00,
2013-01-22 18:25:00,13.5,3.6,29.97,West,263,0.0,1.0,64,0.00,,,0.00,Wunderground v.1.15,2013-01-22 23:25:00,
2013-01-22 18:35:00,13.6,7.4,29.98,SE,128,2.0,5.0,76,0.00,,,0.00,Wunderground v.1.15,2013-01-22 23:35:00,
2013-01-22 19:25:00,12.6,5.6,29.99,SE,134,0.0,5.0,73,0.00,,,0.00,Wunderground v.1.15,2013-01-23 00:25:00,
2013-01-22 19:35:00,12.5,5.2,29.99,WNW,285,0.0,5.0,72,0.00,,,0.00,Wunderground v.1.15,2013-01-23 00:35:00,
2013-01-22 19:40:00,12.4,5.1,29.99,WNW,285,0.0,0.0,72,0.00,,,0.00,Wunderground v.1.15,2013-01-23 00:40:00,
2013-01-22 19:50:00,12.2,4.3,29.99,SSW,209,0.0,0.0,70,0.00,,,0.00,Wunderground v.1.15,2013-01-23 00:50:00,
2013-01-22 20:00:00,11.9,4.0,30.00,East,90,0.0,0.0,70,0.00,,,0.00,Wunderground v.1.15,2013-01-23 01:00:00,
2013-01-22 20:10:00,11.5,3.6,30.00,East,93,0.0,0.0,70,0.00,,,0.00,Wunderground v.1.15,2013-01-23 01:10:00,
2013-01-22 20:20:00,11.1,3.5,30.00,East,92,0.0,0.0,71,0.00,,,0.00,Wunderground v.1.15,2013-01-23 01:20:00,
2013-01-22 20:30:00,10.5,3.3,30.00,East,92,0.0,0.0,72,0.00,,,0.00,Wunderground v.1.15,2013-01-23 01:30:00,
2013-01-22 20:40:00,10.1,2.9,30.01,East,93,0.0,0.0,72,0.00,,,0.00,Wunderground v.1.15,2013-01-23 01:40:00,
2013-01-22 20:50:00,9.8,2.9,30.01,East,93,0.0,0.0,73,0.00,,,0.00,Wunderground v.1.15,2013-01-23 01:50:00,
2013-01-22 21:00:00,9.4,2.8,30.00,East,92,0.0,0.0,74,0.00,,,0.00,Wunderground v.1.15,2013-01-23 02:00:00,
2013-01-22 21:05:00,9.2,2.9,30.01,East,93,0.0,0.0,75,0.00,,,0.00,Wunderground v.1.15,2013-01-23 02:05:00,
2013-01-22 21:15:00,8.8,2.5,30.01,East,93,0.0,0.0,75,0.00,,,0.00,Wunderground v.1.15,2013-01-23 02:15:00,
2013-01-22 21:25:00,8.5,2.5,30.01,East,93,0.0,0.0,76,0.00,,,0.00,Wunderground v.1.15,2013-01-23 02:25:00,
2013-01-22 21:30:00,8.4,2.4,30.01,East,92,0.0,0.0,76,0.00,,,0.00,Wunderground v.1.15,2013-01-23 02:30:00,
2013-01-22 21:40:00,8.1,2.1,30.01,East,93,0.0,0.0,76,0.00,,,0.00,Wunderground v.1.15,2013-01-23 02:40:00,
2013-01-22 21:50:00,7.8,1.8,30.01,East,93,0.0,0.0,76,0.00,,,0.00,Wunderground v.1.15,2013-01-23 02:50:00,
2013-01-22 22:00:00,7.5,1.5,30.02,East,93,0.0,0.0,76,0.00,,,0.00,Wunderground v.1.15,2013-01-23 03:00:00,
2013-01-22 22:10:00,7.6,1.0,30.02,SW,226,0.0,0.0,74,0.00,,,0.00,Wunderground v.1.15,2013-01-23 03:10:00,
2013-01-22 22:20:00,7.8,0.3,30.03,WSW,237,0.0,0.0,71,0.00,,,0.00,Wunderground v.1.15,2013-01-23 03:20:00,
2013-01-22 22:25:00,7.8,-0.3,30.03,WSW,237,0.0,0.0,69,0.00,,,0.00,Wunderground v.1.15,2013-01-23 03:25:00,
2013-01-22 22:35:00,8.1,-1.2,30.03,SW,224,0.0,0.0,65,0.00,,,0.00,Wunderground v.1.15,2013-01-23 03:35:00,
2013-01-22 22:45:00,8.3,-2.1,30.03,SW,224,0.0,0.0,62,0.00,,,0.00,Wunderground v.1.15,2013-01-23 03:45:00,
2013-01-22 22:50:00,8.1,-2.2,30.03,SW,224,0.0,0.0,62,0.00,,,0.00,Wunderground v.1.15,2013-01-23 03:50:00,
2013-01-22 23:00:00,7.7,-1.6,30.03,SW,223,0.0,0.0,65,0.00,,,0.00,Wunderground v.1.15,2013-01-23 04:00:00,
2013-01-22 23:10:00,7.3,-2.0,30.03,SW,223,0.0,0.0,65,0.00,,,0.00,Wunderground v.1.15,2013-01-23 04:10:00,
2013-01-22 23:15:00,7.0,-1.7,30.03,SW,224,0.0,0.0,67,0.00,,,0.00,Wunderground v.1.15,2013-01-23 04:15:00,
2013-01-22 23:25:00,6.5,-2.8,30.03,SW,223,0.0,0.0,65,0.00,,,0.00,Wunderground v.1.15,2013-01-23 04:25:00,
2013-01-22 23:35:00,6.2,-2.7,30.03,SW,223,0.0,0.0,66,0.00,,,0.00,Wunderground v.1.15,2013-01-23 04:35:00,
2013-01-22 23:40:00,6.0,-2.9,30.03,SW,223,0.0,0.0,66,0.00,,,0.00,Wunderground v.1.15,2013-01-23 04:40:00,
2013-01-22 23:50:00,5.6,-3.0,30.03,SW,224,0.0,0.0,67,0.00,,,0.00,Wunderground v.1.15,2013-01-23 04:50:00,
2013-01-22 23:55:00,5.4,-3.2,30.03,SW,224,0.0,0.0,67,0.00,,,0.00,Wunderground v.1.15,2013-01-23 04:55:00,